sensor_id;sensor_type;location;lat;lon;timestamp;P1;durP1;ratioP1;P2;durP2;ratioP2
71387;SDS011;59201;59.902;10.520;2023-05-08T06:17:49;5.68;;;1.38;;
71387;SDS011;59201;59.902;10.520;2023-05-08T06:20:33;6.18;;;1.50;;
71387;SDS011;59201;59.902;10.520;2023-05-08T06:23:07;6.73;;;1.70;;
71387;SDS011;59201;59.902;10.520;2023-05-08T06:25:36;6.70;;;1.70;;
71387;SDS011;59201;59.902;10.520;2023-05-08T06:28:06;5.32;;;1.45;;
71387;SDS011;59201;59.902;10.520;2023-05-08T06:30:36;8.50;;;1.70;;
71387;SDS011;59201;59.902;10.520;2023-05-08T06:33:05;7.93;;;1.90;;
71387;SDS011;59201;59.902;10.520;2023-05-08T06:35:36;8.17;;;1.67;;
71387;SDS011;59201;59.902;10.520;2023-05-08T06:38:04;11.98;;;2.10;;
71387;SDS011;59201;59.902;10.520;2023-05-08T06:40:33;5.85;;;1.70;;
71387;SDS011;59201;59.902;10.520;2023-05-08T06:43:18;5.05;;;1.23;;
71387;SDS011;59201;59.902;10.520;2023-05-08T06:46:02;10.15;;;2.08;;
71387;SDS011;59201;59.902;10.520;2023-05-08T06:48:49;8.57;;;1.97;;
71387;SDS011;59201;59.902;10.520;2023-05-08T06:51:22;8.65;;;2.00;;
71387;SDS011;59201;59.902;10.520;2023-05-08T06:53:53;7.30;;;1.80;;
71387;SDS011;59201;59.902;10.520;2023-05-08T06:56:27;7.40;;;1.83;;
71387;SDS011;59201;59.902;10.520;2023-05-08T06:58:56;6.57;;;1.70;;
71387;SDS011;59201;59.902;10.520;2023-05-08T07:01:29;6.60;;;1.30;;
71387;SDS011;59201;59.902;10.520;2023-05-08T07:03:57;6.97;;;1.70;;
71387;SDS011;59201;59.902;10.520;2023-05-08T07:06:30;5.28;;;1.60;;
71387;SDS011;59201;59.902;10.520;2023-05-08T07:09:01;7.50;;;1.70;;
71387;SDS011;59201;59.902;10.520;2023-05-08T07:11:29;5.75;;;1.80;;
71387;SDS011;59201;59.902;10.520;2023-05-08T07:14:02;6.30;;;1.60;;
71387;SDS011;59201;59.902;10.520;2023-05-08T07:16:31;5.80;;;1.75;;
71387;SDS011;59201;59.902;10.520;2023-05-08T07:18:59;8.18;;;1.83;;
71387;SDS011;59201;59.902;10.520;2023-05-08T07:21:32;6.03;;;1.95;;
71387;SDS011;59201;59.902;10.520;2023-05-08T07:24:01;6.78;;;1.90;;
71387;SDS011;59201;59.902;10.520;2023-05-08T07:29:20;5.70;;;2.00;;
71387;SDS011;59201;59.902;10.520;2023-05-08T07:31:50;5.90;;;1.70;;
71387;SDS011;59201;59.902;10.520;2023-05-08T07:34:24;6.07;;;2.00;;
71387;SDS011;59201;59.902;10.520;2023-05-08T07:36:58;6.05;;;1.50;;
71387;SDS011;59201;59.902;10.520;2023-05-08T07:39:29;4.90;;;1.63;;
71387;SDS011;59201;59.902;10.520;2023-05-08T07:41:59;5.80;;;1.98;;
71387;SDS011;59201;59.902;10.520;2023-05-08T07:44:27;6.80;;;1.80;;
71387;SDS011;59201;59.902;10.520;2023-05-08T07:47:02;4.30;;;1.08;;
71387;SDS011;59201;59.902;10.520;2023-05-08T07:49:30;4.88;;;1.58;;
71387;SDS011;59201;59.902;10.520;2023-05-08T07:52:04;4.80;;;1.20;;
71387;SDS011;59201;59.902;10.520;2023-05-08T07:54:34;5.95;;;1.80;;
71387;SDS011;59201;59.902;10.520;2023-05-08T07:57:03;5.32;;;2.00;;
71387;SDS011;59201;59.902;10.520;2023-05-08T07:59:37;6.13;;;1.60;;
71387;SDS011;59201;59.902;10.520;2023-05-08T08:02:10;4.90;;;1.60;;
71387;SDS011;59201;59.902;10.520;2023-05-08T08:04:39;5.27;;;1.70;;
71387;SDS011;59201;59.902;10.520;2023-05-08T08:07:08;4.03;;;1.15;;
71387;SDS011;59201;59.902;10.520;2023-05-08T08:09:38;6.43;;;1.50;;
71387;SDS011;59201;59.902;10.520;2023-05-08T08:12:16;7.15;;;1.90;;
71387;SDS011;59201;59.902;10.520;2023-05-08T08:14:47;5.68;;;1.70;;
71387;SDS011;59201;59.902;10.520;2023-05-08T08:17:18;6.60;;;1.77;;
71387;SDS011;59201;59.902;10.520;2023-05-08T08:19:47;5.50;;;1.50;;
71387;SDS011;59201;59.902;10.520;2023-05-08T08:22:16;6.30;;;1.80;;
71387;SDS011;59201;59.902;10.520;2023-05-08T08:24:49;6.55;;;1.48;;
71387;SDS011;59201;59.902;10.520;2023-05-08T08:30:24;5.70;;;1.83;;
71387;SDS011;59201;59.902;10.520;2023-05-08T08:33:03;4.60;;;1.40;;
71387;SDS011;59201;59.902;10.520;2023-05-08T08:35:36;4.72;;;1.50;;
71387;SDS011;59201;59.902;10.520;2023-05-08T08:38:04;4.90;;;1.60;;
71387;SDS011;59201;59.902;10.520;2023-05-08T08:40:39;6.38;;;1.95;;
71387;SDS011;59201;59.902;10.520;2023-05-08T08:43:09;4.70;;;1.30;;
71387;SDS011;59201;59.902;10.520;2023-05-08T08:45:37;6.47;;;1.73;;
71387;SDS011;59201;59.902;10.520;2023-05-08T08:51:13;8.30;;;1.60;;
71387;SDS011;59201;59.902;10.520;2023-05-08T08:53:45;4.18;;;1.35;;
71387;SDS011;59201;59.902;10.520;2023-05-08T08:56:18;7.77;;;1.87;;
71387;SDS011;59201;59.902;10.520;2023-05-08T09:02:00;6.15;;;1.85;;
71387;SDS011;59201;59.902;10.520;2023-05-08T09:04:35;5.45;;;1.80;;
71387;SDS011;59201;59.902;10.520;2023-05-08T09:07:04;4.82;;;1.40;;
71387;SDS011;59201;59.902;10.520;2023-05-08T09:09:34;5.63;;;1.80;;
71387;SDS011;59201;59.902;10.520;2023-05-08T09:12:06;6.60;;;1.50;;
71387;SDS011;59201;59.902;10.520;2023-05-08T09:14:40;5.30;;;1.50;;
71387;SDS011;59201;59.902;10.520;2023-05-08T09:17:11;5.65;;;1.90;;
71387;SDS011;59201;59.902;10.520;2023-05-08T09:19:42;5.05;;;1.80;;
71387;SDS011;59201;59.902;10.520;2023-05-08T09:22:12;5.70;;;1.80;;
71387;SDS011;59201;59.902;10.520;2023-05-08T09:24:58;7.45;;;1.92;;
71387;SDS011;59201;59.902;10.520;2023-05-08T09:27:29;5.88;;;2.00;;
71387;SDS011;59201;59.902;10.520;2023-05-08T09:30:12;5.95;;;1.92;;
71387;SDS011;59201;59.902;10.520;2023-05-08T09:32:43;5.70;;;1.90;;
71387;SDS011;59201;59.902;10.520;2023-05-08T09:35:14;5.73;;;2.37;;
71387;SDS011;59201;59.902;10.520;2023-05-08T09:37:46;6.15;;;2.15;;
71387;SDS011;59201;59.902;10.520;2023-05-08T09:42:45;7.35;;;2.63;;
71387;SDS011;59201;59.902;10.520;2023-05-08T09:48:16;7.07;;;2.17;;
71387;SDS011;59201;59.902;10.520;2023-05-08T09:50:45;5.55;;;1.80;;
71387;SDS011;59201;59.902;10.520;2023-05-08T09:53:18;5.80;;;1.77;;
71387;SDS011;59201;59.902;10.520;2023-05-08T09:55:47;6.82;;;2.53;;
71387;SDS011;59201;59.902;10.520;2023-05-08T09:58:22;6.32;;;2.08;;
71387;SDS011;59201;59.902;10.520;2023-05-08T10:00:54;7.40;;;2.43;;
71387;SDS011;59201;59.902;10.520;2023-05-08T10:03:23;6.72;;;2.30;;
71387;SDS011;59201;59.902;10.520;2023-05-08T10:06:04;8.32;;;2.28;;
71387;SDS011;59201;59.902;10.520;2023-05-08T10:08:38;5.85;;;1.98;;
71387;SDS011;59201;59.902;10.520;2023-05-08T10:11:18;6.75;;;2.30;;
71387;SDS011;59201;59.902;10.520;2023-05-08T10:13:48;5.13;;;2.00;;
71387;SDS011;59201;59.902;10.520;2023-05-08T10:16:19;7.45;;;2.08;;
71387;SDS011;59201;59.902;10.520;2023-05-08T10:18:51;7.82;;;2.85;;
71387;SDS011;59201;59.902;10.520;2023-05-08T10:21:21;7.93;;;2.30;;
71387;SDS011;59201;59.902;10.520;2023-05-08T10:23:53;6.90;;;2.25;;
71387;SDS011;59201;59.902;10.520;2023-05-08T10:26:28;6.90;;;2.30;;
71387;SDS011;59201;59.902;10.520;2023-05-08T10:28:58;9.38;;;2.50;;
71387;SDS011;59201;59.902;10.520;2023-05-08T10:31:27;6.65;;;2.20;;
71387;SDS011;59201;59.902;10.520;2023-05-08T10:33:55;6.55;;;1.92;;
71387;SDS011;59201;59.902;10.520;2023-05-08T10:36:27;5.65;;;1.90;;
71387;SDS011;59201;59.902;10.520;2023-05-08T10:38:57;5.67;;;2.17;;
71387;SDS011;59201;59.902;10.520;2023-05-08T10:41:32;5.68;;;1.88;;
71387;SDS011;59201;59.902;10.520;2023-05-08T10:44:00;7.95;;;2.20;;
71387;SDS011;59201;59.902;10.520;2023-05-08T10:55:11;5.88;;;2.30;;
71387;SDS011;59201;59.902;10.520;2023-05-08T10:58:42;6.78;;;2.45;;
71387;SDS011;59201;59.902;10.520;2023-05-08T11:03:22;7.05;;;2.17;;
71387;SDS011;59201;59.902;10.520;2023-05-08T11:05:54;7.50;;;2.03;;
71387;SDS011;59201;59.902;10.520;2023-05-08T11:08:24;5.40;;;2.10;;
71387;SDS011;59201;59.902;10.520;2023-05-08T11:13:42;11.18;;;2.50;;
71387;SDS011;59201;59.902;10.520;2023-05-08T11:16:14;6.30;;;1.90;;
71387;SDS011;59201;59.902;10.520;2023-05-08T11:21:29;5.90;;;2.13;;
71387;SDS011;59201;59.902;10.520;2023-05-08T11:24:01;7.57;;;2.28;;
71387;SDS011;59201;59.902;10.520;2023-05-08T11:26:39;4.80;;;1.60;;
71387;SDS011;59201;59.902;10.520;2023-05-08T11:29:18;6.05;;;1.92;;
71387;SDS011;59201;59.902;10.520;2023-05-08T11:31:51;8.07;;;1.70;;
71387;SDS011;59201;59.902;10.520;2023-05-08T11:37:24;6.18;;;1.80;;
71387;SDS011;59201;59.902;10.520;2023-05-08T11:40:07;5.65;;;1.73;;
71387;SDS011;59201;59.902;10.520;2023-05-08T11:42:46;6.05;;;1.85;;
71387;SDS011;59201;59.902;10.520;2023-05-08T11:45:14;9.53;;;2.10;;
71387;SDS011;59201;59.902;10.520;2023-05-08T11:47:45;6.10;;;2.20;;
71387;SDS011;59201;59.902;10.520;2023-05-08T11:50:17;7.15;;;1.75;;
71387;SDS011;59201;59.902;10.520;2023-05-08T11:52:47;11.73;;;2.17;;
71387;SDS011;59201;59.902;10.520;2023-05-08T11:55:21;5.43;;;1.70;;
71387;SDS011;59201;59.902;10.520;2023-05-08T11:57:53;7.07;;;1.87;;
71387;SDS011;59201;59.902;10.520;2023-05-08T12:00:25;6.57;;;1.65;;
71387;SDS011;59201;59.902;10.520;2023-05-08T12:03:06;5.40;;;1.63;;
71387;SDS011;59201;59.902;10.520;2023-05-08T12:05:39;4.78;;;1.45;;
71387;SDS011;59201;59.902;10.520;2023-05-08T12:08:14;6.35;;;1.80;;
71387;SDS011;59201;59.902;10.520;2023-05-08T12:13:16;4.80;;;1.50;;
71387;SDS011;59201;59.902;10.520;2023-05-08T12:15:47;9.85;;;1.50;;
71387;SDS011;59201;59.902;10.520;2023-05-08T12:18:20;4.88;;;1.60;;
71387;SDS011;59201;59.902;10.520;2023-05-08T12:20:51;5.95;;;1.83;;
71387;SDS011;59201;59.902;10.520;2023-05-08T12:23:30;5.17;;;1.67;;
71387;SDS011;59201;59.902;10.520;2023-05-08T12:26:03;5.78;;;1.80;;
71387;SDS011;59201;59.902;10.520;2023-05-08T12:28:35;4.70;;;1.52;;
71387;SDS011;59201;59.902;10.520;2023-05-08T12:31:15;4.45;;;1.40;;
71387;SDS011;59201;59.902;10.520;2023-05-08T12:33:45;5.18;;;1.67;;
71387;SDS011;59201;59.902;10.520;2023-05-08T12:36:21;6.60;;;1.80;;
71387;SDS011;59201;59.902;10.520;2023-05-08T12:38:50;5.25;;;1.67;;
71387;SDS011;59201;59.902;10.520;2023-05-08T12:41:22;7.30;;;1.90;;
71387;SDS011;59201;59.902;10.520;2023-05-08T12:43:57;5.57;;;1.90;;
71387;SDS011;59201;59.902;10.520;2023-05-08T12:46:32;4.30;;;1.50;;
71387;SDS011;59201;59.902;10.520;2023-05-08T12:49:09;6.73;;;2.00;;
71387;SDS011;59201;59.902;10.520;2023-05-08T12:51:37;5.30;;;1.60;;
71387;SDS011;59201;59.902;10.520;2023-05-08T12:54:06;7.18;;;2.13;;
71387;SDS011;59201;59.902;10.520;2023-05-08T12:56:42;5.82;;;1.77;;
71387;SDS011;59201;59.902;10.520;2023-05-08T12:59:11;5.80;;;2.13;;
71387;SDS011;59201;59.902;10.520;2023-05-08T13:01:39;7.60;;;1.90;;
71387;SDS011;59201;59.902;10.520;2023-05-08T13:04:08;6.10;;;2.00;;
71387;SDS011;59201;59.902;10.520;2023-05-08T13:06:37;9.43;;;2.35;;
71387;SDS011;59201;59.902;10.520;2023-05-08T13:09:17;5.35;;;2.00;;
71387;SDS011;59201;59.902;10.520;2023-05-08T13:15:14;6.37;;;2.27;;
71387;SDS011;59201;59.902;10.520;2023-05-08T13:17:48;6.07;;;1.90;;
71387;SDS011;59201;59.902;10.520;2023-05-08T13:20:18;7.57;;;2.00;;
71387;SDS011;59201;59.902;10.520;2023-05-08T13:22:48;8.50;;;1.98;;
71387;SDS011;59201;59.902;10.520;2023-05-08T13:25:18;7.57;;;2.38;;
71387;SDS011;59201;59.902;10.520;2023-05-08T13:27:50;6.13;;;1.83;;
71387;SDS011;59201;59.902;10.520;2023-05-08T13:30:22;7.15;;;2.15;;
71387;SDS011;59201;59.902;10.520;2023-05-08T13:32:52;5.30;;;2.00;;
71387;SDS011;59201;59.902;10.520;2023-05-08T13:35:25;8.10;;;2.05;;
71387;SDS011;59201;59.902;10.520;2023-05-08T13:44:17;8.60;;;2.20;;
71387;SDS011;59201;59.902;10.520;2023-05-08T13:46:45;8.13;;;2.53;;
71387;SDS011;59201;59.902;10.520;2023-05-08T13:49:15;6.18;;;2.20;;
71387;SDS011;59201;59.902;10.520;2023-05-08T13:51:49;6.18;;;1.88;;
71387;SDS011;59201;59.902;10.520;2023-05-08T13:54:17;5.10;;;2.10;;
71387;SDS011;59201;59.902;10.520;2023-05-08T13:56:47;6.60;;;2.50;;
71387;SDS011;59201;59.902;10.520;2023-05-08T13:59:17;5.00;;;1.90;;
71387;SDS011;59201;59.902;10.520;2023-05-08T14:01:46;5.38;;;1.80;;
71387;SDS011;59201;59.902;10.520;2023-05-08T14:04:16;7.10;;;2.13;;
71387;SDS011;59201;59.902;10.520;2023-05-08T14:06:44;5.83;;;2.23;;
71387;SDS011;59201;59.902;10.520;2023-05-08T14:09:13;6.03;;;2.22;;
71387;SDS011;59201;59.902;10.520;2023-05-08T14:11:49;6.18;;;2.30;;
71387;SDS011;59201;59.902;10.520;2023-05-08T14:14:23;5.78;;;1.92;;
71387;SDS011;59201;59.902;10.520;2023-05-08T14:16:55;7.35;;;2.28;;
71387;SDS011;59201;59.902;10.520;2023-05-08T14:19:30;5.43;;;1.90;;
71387;SDS011;59201;59.902;10.520;2023-05-08T14:22:08;10.32;;;2.10;;
71387;SDS011;59201;59.902;10.520;2023-05-08T14:24:45;6.53;;;2.00;;
71387;SDS011;59201;59.902;10.520;2023-05-08T14:27:18;8.20;;;2.10;;
71387;SDS011;59201;59.902;10.520;2023-05-08T14:29:55;7.07;;;1.83;;
71387;SDS011;59201;59.902;10.520;2023-05-08T14:32:31;7.33;;;2.07;;
71387;SDS011;59201;59.902;10.520;2023-05-08T14:34:59;6.55;;;2.20;;
71387;SDS011;59201;59.902;10.520;2023-05-08T14:37:31;6.18;;;2.00;;
71387;SDS011;59201;59.902;10.520;2023-05-08T14:40:05;6.50;;;2.13;;
71387;SDS011;59201;59.902;10.520;2023-05-08T14:42:53;6.72;;;2.33;;
71387;SDS011;59201;59.902;10.520;2023-05-08T14:45:22;5.93;;;2.40;;
71387;SDS011;59201;59.902;10.520;2023-05-08T14:47:53;5.40;;;2.00;;
71387;SDS011;59201;59.902;10.520;2023-05-08T14:50:28;6.60;;;1.90;;
71387;SDS011;59201;59.902;10.520;2023-05-08T14:53:03;7.47;;;2.30;;
71387;SDS011;59201;59.902;10.520;2023-05-08T14:55:39;5.75;;;2.10;;
71387;SDS011;59201;59.902;10.520;2023-05-08T14:58:19;13.27;;;2.30;;
71387;SDS011;59201;59.902;10.520;2023-05-08T15:13:14;6.13;;;1.83;;
71387;SDS011;59201;59.902;10.520;2023-05-08T15:19:19;5.57;;;1.85;;
71387;SDS011;59201;59.902;10.520;2023-05-08T15:22:12;6.43;;;2.15;;
71387;SDS011;59201;59.902;10.520;2023-05-08T15:24:41;6.20;;;2.08;;
71387;SDS011;59201;59.902;10.520;2023-05-08T15:30:35;7.00;;;2.22;;
71387;SDS011;59201;59.902;10.520;2023-05-08T15:33:13;5.45;;;2.10;;
71387;SDS011;59201;59.902;10.520;2023-05-08T15:35:47;7.63;;;2.30;;
71387;SDS011;59201;59.902;10.520;2023-05-08T15:41:27;6.10;;;2.10;;
71387;SDS011;59201;59.902;10.520;2023-05-08T15:59:38;6.28;;;2.42;;
71387;SDS011;59201;59.902;10.520;2023-05-08T16:02:13;6.60;;;2.13;;
71387;SDS011;59201;59.902;10.520;2023-05-08T16:04:41;7.20;;;2.60;;
71387;SDS011;59201;59.902;10.520;2023-05-08T16:07:12;6.68;;;2.38;;
71387;SDS011;59201;59.902;10.520;2023-05-08T16:09:40;8.80;;;2.37;;
71387;SDS011;59201;59.902;10.520;2023-05-08T16:12:11;8.10;;;2.80;;
71387;SDS011;59201;59.902;10.520;2023-05-08T16:21:26;7.30;;;2.20;;
71387;SDS011;59201;59.902;10.520;2023-05-08T16:24:17;8.23;;;2.37;;
71387;SDS011;59201;59.902;10.520;2023-05-08T16:27:08;6.65;;;2.28;;
71387;SDS011;59201;59.902;10.520;2023-05-08T16:30:07;5.80;;;2.35;;
71387;SDS011;59201;59.902;10.520;2023-05-08T16:32:36;6.35;;;2.65;;
71387;SDS011;59201;59.902;10.520;2023-05-08T16:35:12;6.15;;;2.05;;
71387;SDS011;59201;59.902;10.520;2023-05-08T16:37:46;5.97;;;2.27;;
71387;SDS011;59201;59.902;10.520;2023-05-08T16:40:31;10.98;;;3.42;;
71387;SDS011;59201;59.902;10.520;2023-05-08T16:43:00;8.52;;;2.30;;
71387;SDS011;59201;59.902;10.520;2023-05-08T16:45:41;6.72;;;2.33;;
71387;SDS011;59201;59.902;10.520;2023-05-08T16:48:19;6.78;;;2.42;;
71387;SDS011;59201;59.902;10.520;2023-05-08T17:00:08;6.55;;;2.40;;
71387;SDS011;59201;59.902;10.520;2023-05-08T17:02:36;6.05;;;2.38;;
71387;SDS011;59201;59.902;10.520;2023-05-08T17:05:09;6.33;;;2.20;;
71387;SDS011;59201;59.902;10.520;2023-05-08T17:07:37;5.13;;;2.20;;
71387;SDS011;59201;59.902;10.520;2023-05-08T17:10:06;5.68;;;2.30;;
71387;SDS011;59201;59.902;10.520;2023-05-08T17:12:40;4.82;;;1.70;;
71387;SDS011;59201;59.902;10.520;2023-05-08T17:15:08;5.55;;;2.00;;
71387;SDS011;59201;59.902;10.520;2023-05-08T17:17:40;6.33;;;1.47;;
71387;SDS011;59201;59.902;10.520;2023-05-08T17:20:30;5.75;;;1.70;;
71387;SDS011;59201;59.902;10.520;2023-05-08T17:29:42;6.63;;;1.92;;
71387;SDS011;59201;59.902;10.520;2023-05-08T17:32:10;5.43;;;2.00;;
71387;SDS011;59201;59.902;10.520;2023-05-08T17:34:40;6.45;;;1.92;;
71387;SDS011;59201;59.902;10.520;2023-05-08T17:37:12;5.97;;;1.83;;
71387;SDS011;59201;59.902;10.520;2023-05-08T17:39:40;7.03;;;2.05;;
71387;SDS011;59201;59.902;10.520;2023-05-08T17:42:11;5.43;;;2.00;;
71387;SDS011;59201;59.902;10.520;2023-05-08T17:44:49;5.53;;;2.17;;
71387;SDS011;59201;59.902;10.520;2023-05-08T17:47:22;8.23;;;2.15;;
71387;SDS011;59201;59.902;10.520;2023-05-08T17:55:59;7.55;;;2.13;;
71387;SDS011;59201;59.902;10.520;2023-05-08T17:58:42;7.13;;;2.30;;
71387;SDS011;59201;59.902;10.520;2023-05-08T18:01:16;9.57;;;2.45;;
71387;SDS011;59201;59.902;10.520;2023-05-08T18:03:51;7.63;;;2.50;;
71387;SDS011;59201;59.902;10.520;2023-05-08T18:06:19;6.95;;;2.50;;
71387;SDS011;59201;59.902;10.520;2023-05-08T18:08:49;7.65;;;2.45;;
71387;SDS011;59201;59.902;10.520;2023-05-08T18:11:38;6.30;;;2.20;;
71387;SDS011;59201;59.902;10.520;2023-05-08T18:14:11;8.32;;;2.40;;
71387;SDS011;59201;59.902;10.520;2023-05-08T18:16:41;8.73;;;2.50;;
71387;SDS011;59201;59.902;10.520;2023-05-08T18:19:21;5.40;;;2.10;;
71387;SDS011;59201;59.902;10.520;2023-05-08T18:21:56;6.40;;;2.45;;
71387;SDS011;59201;59.902;10.520;2023-05-08T18:24:41;6.07;;;2.30;;
71387;SDS011;59201;59.902;10.520;2023-05-08T18:27:18;7.82;;;2.35;;
71387;SDS011;59201;59.902;10.520;2023-05-08T18:29:50;9.98;;;2.42;;
71387;SDS011;59201;59.902;10.520;2023-05-08T18:32:18;7.00;;;2.53;;
71387;SDS011;59201;59.902;10.520;2023-05-08T18:34:51;5.60;;;2.10;;
71387;SDS011;59201;59.902;10.520;2023-05-08T18:37:22;6.90;;;2.57;;
71387;SDS011;59201;59.902;10.520;2023-05-08T18:39:55;6.95;;;2.45;;
71387;SDS011;59201;59.902;10.520;2023-05-08T18:42:27;6.75;;;2.70;;
71387;SDS011;59201;59.902;10.520;2023-05-08T18:45:05;6.43;;;2.60;;
71387;SDS011;59201;59.902;10.520;2023-05-08T18:47:37;6.65;;;2.28;;
71387;SDS011;59201;59.902;10.520;2023-05-08T18:50:07;8.83;;;2.60;;
71387;SDS011;59201;59.902;10.520;2023-05-08T18:52:37;8.05;;;2.63;;
71387;SDS011;59201;59.902;10.520;2023-05-08T18:55:09;11.13;;;4.50;;
71387;SDS011;59201;59.902;10.520;2023-05-08T18:57:43;7.35;;;2.95;;
71387;SDS011;59201;59.902;10.520;2023-05-08T19:03:19;6.80;;;2.70;;
71387;SDS011;59201;59.902;10.520;2023-05-08T19:05:55;8.50;;;2.50;;
71387;SDS011;59201;59.902;10.520;2023-05-08T19:08:27;8.13;;;2.75;;
71387;SDS011;59201;59.902;10.520;2023-05-08T19:10:56;7.25;;;2.83;;
71387;SDS011;59201;59.902;10.520;2023-05-08T19:22:47;8.55;;;2.50;;
71387;SDS011;59201;59.902;10.520;2023-05-08T19:25:28;6.57;;;2.78;;
71387;SDS011;59201;59.902;10.520;2023-05-08T19:28:00;6.90;;;2.90;;
71387;SDS011;59201;59.902;10.520;2023-05-08T19:30:40;7.90;;;2.90;;
71387;SDS011;59201;59.902;10.520;2023-05-08T19:36:20;7.45;;;2.85;;
71387;SDS011;59201;59.902;10.520;2023-05-08T19:38:49;8.18;;;2.88;;
71387;SDS011;59201;59.902;10.520;2023-05-08T19:41:25;6.55;;;2.90;;
71387;SDS011;59201;59.902;10.520;2023-05-08T19:43:59;8.07;;;2.87;;
71387;SDS011;59201;59.902;10.520;2023-05-08T19:46:35;6.75;;;2.20;;
71387;SDS011;59201;59.902;10.520;2023-05-08T19:49:03;9.35;;;2.58;;
71387;SDS011;59201;59.902;10.520;2023-05-08T19:51:37;10.25;;;3.10;;
71387;SDS011;59201;59.902;10.520;2023-05-08T19:54:07;6.88;;;2.80;;
71387;SDS011;59201;59.902;10.520;2023-05-08T19:56:43;7.43;;;2.50;;
71387;SDS011;59201;59.902;10.520;2023-05-08T19:59:15;9.70;;;3.53;;
71387;SDS011;59201;59.902;10.520;2023-05-08T20:01:49;9.63;;;3.10;;
71387;SDS011;59201;59.902;10.520;2023-05-08T20:04:25;8.50;;;3.00;;
71387;SDS011;59201;59.902;10.520;2023-05-08T20:22:42;7.10;;;3.00;;
71387;SDS011;59201;59.902;10.520;2023-05-08T20:25:28;6.93;;;2.63;;
71387;SDS011;59201;59.902;10.520;2023-05-08T20:27:56;6.50;;;3.00;;
71387;SDS011;59201;59.902;10.520;2023-05-08T20:30:41;6.55;;;2.72;;
71387;SDS011;59201;59.902;10.520;2023-05-08T20:33:15;8.93;;;3.22;;
71387;SDS011;59201;59.902;10.520;2023-05-08T20:35:46;7.85;;;2.80;;
71387;SDS011;59201;59.902;10.520;2023-05-08T20:38:15;7.57;;;2.73;;
71387;SDS011;59201;59.902;10.520;2023-05-08T20:40:48;7.13;;;2.92;;
71387;SDS011;59201;59.902;10.520;2023-05-08T20:46:40;7.22;;;3.10;;
71387;SDS011;59201;59.902;10.520;2023-05-08T20:49:08;11.30;;;3.20;;
71387;SDS011;59201;59.902;10.520;2023-05-08T20:51:39;7.57;;;2.77;;
71387;SDS011;59201;59.902;10.520;2023-05-08T21:00:42;8.32;;;2.85;;
71387;SDS011;59201;59.902;10.520;2023-05-08T21:03:21;7.93;;;3.10;;
71387;SDS011;59201;59.902;10.520;2023-05-08T21:05:53;8.60;;;3.07;;
71387;SDS011;59201;59.902;10.520;2023-05-08T21:08:21;9.27;;;3.20;;
71387;SDS011;59201;59.902;10.520;2023-05-08T21:10:56;7.80;;;2.95;;
71387;SDS011;59201;59.902;10.520;2023-05-08T21:13:25;6.47;;;2.95;;
71387;SDS011;59201;59.902;10.520;2023-05-08T21:16:06;8.98;;;3.40;;
71387;SDS011;59201;59.902;10.520;2023-05-08T21:18:36;8.97;;;3.03;;
71387;SDS011;59201;59.902;10.520;2023-05-08T21:21:12;8.20;;;3.10;;
71387;SDS011;59201;59.902;10.520;2023-05-08T21:23:41;8.90;;;3.25;;
71387;SDS011;59201;59.902;10.520;2023-05-08T21:26:08;8.93;;;3.10;;
71387;SDS011;59201;59.902;10.520;2023-05-08T21:28:43;7.32;;;3.30;;
71387;SDS011;59201;59.902;10.520;2023-05-08T21:31:12;7.83;;;3.60;;
71387;SDS011;59201;59.902;10.520;2023-05-08T21:33:45;8.48;;;3.22;;
71387;SDS011;59201;59.902;10.520;2023-05-08T21:36:15;8.15;;;3.10;;
71387;SDS011;59201;59.902;10.520;2023-05-08T21:38:50;7.60;;;3.40;;
71387;SDS011;59201;59.902;10.520;2023-05-08T21:41:30;8.60;;;3.33;;
71387;SDS011;59201;59.902;10.520;2023-05-08T21:44:03;7.30;;;3.00;;
71387;SDS011;59201;59.902;10.520;2023-05-08T21:46:36;9.05;;;3.00;;
71387;SDS011;59201;59.902;10.520;2023-05-08T21:49:07;8.85;;;3.22;;
71387;SDS011;59201;59.902;10.520;2023-05-08T21:51:41;6.90;;;3.25;;
71387;SDS011;59201;59.902;10.520;2023-05-08T21:54:10;9.38;;;3.08;;
71387;SDS011;59201;59.902;10.520;2023-05-08T21:56:45;9.13;;;3.27;;
71387;SDS011;59201;59.902;10.520;2023-05-08T21:59:13;7.75;;;3.40;;
71387;SDS011;59201;59.902;10.520;2023-05-08T22:01:41;7.68;;;3.70;;
71387;SDS011;59201;59.902;10.520;2023-05-08T22:04:09;7.47;;;3.17;;
71387;SDS011;59201;59.902;10.520;2023-05-08T22:06:44;9.02;;;3.30;;
71387;SDS011;59201;59.902;10.520;2023-05-08T22:09:12;8.63;;;3.17;;
71387;SDS011;59201;59.902;10.520;2023-05-08T22:11:48;7.68;;;3.22;;
71387;SDS011;59201;59.902;10.520;2023-05-08T22:14:23;7.82;;;3.03;;
71387;SDS011;59201;59.902;10.520;2023-05-08T22:16:54;10.35;;;3.30;;
71387;SDS011;59201;59.902;10.520;2023-05-08T22:19:28;8.75;;;3.40;;
71387;SDS011;59201;59.902;10.520;2023-05-08T22:22:00;10.20;;;3.30;;
71387;SDS011;59201;59.902;10.520;2023-05-08T22:24:37;12.38;;;3.83;;
71387;SDS011;59201;59.902;10.520;2023-05-08T22:27:07;8.30;;;3.10;;
71387;SDS011;59201;59.902;10.520;2023-05-08T22:29:40;7.90;;;3.70;;
71387;SDS011;59201;59.902;10.520;2023-05-08T22:32:08;9.45;;;3.70;;
71387;SDS011;59201;59.902;10.520;2023-05-08T22:34:39;9.97;;;3.90;;
71387;SDS011;59201;59.902;10.520;2023-05-08T22:37:10;10.60;;;3.83;;
71387;SDS011;59201;59.902;10.520;2023-05-08T22:39:40;10.65;;;3.88;;
71387;SDS011;59201;59.902;10.520;2023-05-08T22:42:12;10.93;;;3.95;;
71387;SDS011;59201;59.902;10.520;2023-05-08T22:44:42;10.10;;;3.70;;
71387;SDS011;59201;59.902;10.520;2023-05-08T22:47:22;7.73;;;3.80;;
71387;SDS011;59201;59.902;10.520;2023-05-08T22:49:52;9.00;;;3.65;;
71387;SDS011;59201;59.902;10.520;2023-05-08T22:52:29;10.73;;;3.63;;
71387;SDS011;59201;59.902;10.520;2023-05-08T22:55:00;7.57;;;3.38;;
71387;SDS011;59201;59.902;10.520;2023-05-08T22:57:31;11.90;;;3.65;;
71387;SDS011;59201;59.902;10.520;2023-05-08T23:00:05;8.63;;;3.30;;
71387;SDS011;59201;59.902;10.520;2023-05-08T23:02:35;10.40;;;4.05;;
71387;SDS011;59201;59.902;10.520;2023-05-08T23:05:04;7.93;;;3.20;;
71387;SDS011;59201;59.902;10.520;2023-05-08T23:07:35;8.35;;;3.33;;
71387;SDS011;59201;59.902;10.520;2023-05-08T23:10:04;8.73;;;3.63;;
71387;SDS011;59201;59.902;10.520;2023-05-08T23:12:33;9.57;;;3.30;;
71387;SDS011;59201;59.902;10.520;2023-05-08T23:15:13;11.50;;;3.60;;
71387;SDS011;59201;59.902;10.520;2023-05-08T23:17:42;11.63;;;3.72;;
71387;SDS011;59201;59.902;10.520;2023-05-08T23:20:10;9.25;;;3.92;;
71387;SDS011;59201;59.902;10.520;2023-05-08T23:22:45;8.98;;;3.60;;
71387;SDS011;59201;59.902;10.520;2023-05-08T23:25:14;13.80;;;4.33;;
71387;SDS011;59201;59.902;10.520;2023-05-08T23:27:51;9.63;;;3.60;;
71387;SDS011;59201;59.902;10.520;2023-05-08T23:30:22;8.52;;;3.70;;
71387;SDS011;59201;59.902;10.520;2023-05-08T23:32:54;9.27;;;3.47;;
71387;SDS011;59201;59.902;10.520;2023-05-08T23:35:20;7.13;;;3.50;;
71387;SDS011;59201;59.902;10.520;2023-05-08T23:37:53;8.70;;;3.53;;
71387;SDS011;59201;59.902;10.520;2023-05-08T23:40:23;7.75;;;3.35;;
71387;SDS011;59201;59.902;10.520;2023-05-08T23:42:53;11.80;;;3.40;;
71387;SDS011;59201;59.902;10.520;2023-05-08T23:45:23;9.93;;;3.95;;
71387;SDS011;59201;59.902;10.520;2023-05-08T23:47:57;9.27;;;3.75;;
71387;SDS011;59201;59.902;10.520;2023-05-08T23:50:29;8.47;;;3.70;;
71387;SDS011;59201;59.902;10.520;2023-05-08T23:52:58;10.68;;;3.90;;
71387;SDS011;59201;59.902;10.520;2023-05-08T23:55:31;9.00;;;3.38;;
71387;SDS011;59201;59.902;10.520;2023-05-08T23:58:02;8.43;;;3.60;;
